Ignacio, CO (81137)

6:16 AM MDT on August 03, 2015 (GMT -0600)
AMPT test site | | Change Station
CLOSE
Current Station
Personal Weather Station
Location: Durango, CO
Elevation: 6696 ft
Nearby Weather Stations

Elev 6696 ft 37.16 °N, 107.74 °W | Updated 52 seconds ago

Clear
Clear
53.6 °F
Feels Like 53.6 °F
N
2.0
Wind Variable Wind from WNW
Gusts 3.0 mph

Today
High -- | Low -- °F
--% Chance of Precip.
Yesterday
High -- | Low -- °F
Precip. -- in
6:17 AM 8:15 PM
Waning Gibbous, 87% visible
Pressure 30.24 in
Visibility 1.2 miles
Clouds Clear
Dew Point 52 °F
Humidity 96%
Rainfall -999.00 in
Snow Depth Not available.
UV 0 out of 12
Pollen 4.00 out of 12
Air Quality Not available.
Flu Activity Not available.
SPECI KDRO 031214Z AUTO 00000KT 1 1/4SM BR CLR 10/10 A3024 RMK AO2 T01000100 $

More Conditions Fewer Conditions

Pressure 30.24 in
Visibility 1.2 miles
Clouds Clear
Dew Point 52 °F
Humidity 96%
Rainfall -999.00 in
Snow Depth Not available.
UV 0 out of 12
Pollen 4.00 out of 12
Air Quality Not available.
Flu Activity Not available.
SPECI KDRO 031214Z AUTO 00000KT 1 1/4SM BR CLR 10/10 A3024 RMK AO2 T01000100 $

More Conditions Fewer Conditions

10-Day Weather Forecast

×

Almanac

Astronomy

Aug. 03, 2015 Rise Set
Actual Time
Civil Twilight
Nautical Twilight
Astronomical Twilight
Moon
Length of Visible Light
Length of Day
Tomorrow will be .
, % of the Moon is Illuminated

Today's Extremes

State Highs State Lows

Community

WunderPhotos

Upload Photos

1,843,618 photos uploaded!

WunderBlogs® & News

Nearby

Air Quality

  Air Quality AQ Index Pollutant
Not available.

Snow Depth

Station Depth Elevation

Earthquake Activity

City Distance Mag. Time & Date
Minimum magnitude displayed is 2.5.

Coastal Water Temperatures

Place Temperature

Stations

Nearby Weather Stations

Station Location Temp. Windchill Dew Point Humidity Wind Precip. Elev Updated Type